createdAt,value
2017-05-16T00:00:02.842Z,17.7
2017-05-16T00:05:03.353Z,17.7
2017-05-16T00:10:03.027Z,17.7
2017-05-16T00:15:02.899Z,17.7
2017-05-16T00:20:02.535Z,17.5
2017-05-16T00:25:03.166Z,17.5
2017-05-16T00:30:02.950Z,17.5
2017-05-16T00:35:02.635Z,17.7
2017-05-16T00:40:02.528Z,17.5
2017-05-16T00:45:03.106Z,17.5
2017-05-16T00:50:02.848Z,17.5
2017-05-16T00:55:02.615Z,17.5
2017-05-16T01:00:02.444Z,17.5
2017-05-16T01:05:03.047Z,17.5
2017-05-16T01:10:02.856Z,17.5
2017-05-16T01:15:09.517Z,17.5
2017-05-16T01:20:03.227Z,17.5
2017-05-16T01:25:03.086Z,17.5
2017-05-16T01:30:02.922Z,17.5
2017-05-16T01:35:02.686Z,17.5
2017-05-16T01:40:02.578Z,17.3
2017-05-16T01:45:03.272Z,17.3
2017-05-16T01:50:03.046Z,17.3
2017-05-16T01:55:02.703Z,17.3
2017-05-16T02:00:03.267Z,17.3
2017-05-16T02:05:02.900Z,17.7
2017-05-16T02:10:02.870Z,17.7
2017-05-16T02:15:02.541Z,17.5
2017-05-16T02:20:03.298Z,17.5
2017-05-16T02:25:03.013Z,17.5
2017-05-16T02:30:02.636Z,17.3
2017-05-16T02:35:02.490Z,17.3
2017-05-16T02:40:03.118Z,17.5
2017-05-16T02:45:02.680Z,17.3
2017-05-16T02:50:02.488Z,17.3
2017-05-16T02:55:03.013Z,17.3
2017-05-16T03:00:02.874Z,17.3
2017-05-16T03:05:02.712Z,17.3
2017-05-16T03:10:02.635Z,17.3
2017-05-16T03:15:03.379Z,17.3
2017-05-16T03:20:03.245Z,17.2
2017-05-16T03:25:02.995Z,17.3
2017-05-16T03:30:02.641Z,17.3
2017-05-16T03:35:03.290Z,17.2
2017-05-16T03:40:02.953Z,17.2
2017-05-16T03:45:02.777Z,17.2
2017-05-16T03:50:02.666Z,17.2
2017-05-16T03:55:02.692Z,17.1
2017-05-16T04:00:02.453Z,17.2
2017-05-16T04:05:03.025Z,17.2
2017-05-16T04:10:02.884Z,17.2
2017-05-16T04:15:05.675Z,17.1
2017-05-16T04:20:02.449Z,17.1
2017-05-16T04:25:03.273Z,17.1
2017-05-16T04:30:02.852Z,17.1
2017-05-16T04:35:02.604Z,17.0
2017-05-16T04:40:03.256Z,17.0
2017-05-16T04:45:03.099Z,17.1
2017-05-16T04:50:02.895Z,17.0
2017-05-16T04:55:02.710Z,17.1
2017-05-16T05:00:02.501Z,17.1
2017-05-16T05:05:03.350Z,17.1
2017-05-16T05:10:02.966Z,17.2
2017-05-16T05:15:02.785Z,17.2
2017-05-16T05:20:02.474Z,17.3
2017-05-16T05:25:03.265Z,17.3
2017-05-16T05:30:03.076Z,17.3
2017-05-16T05:35:02.742Z,17.5
2017-05-16T05:40:02.610Z,17.5
2017-05-16T05:45:02.404Z,17.7
2017-05-16T05:50:03.277Z,17.7
2017-05-16T05:55:03.060Z,17.7
2017-05-16T06:00:02.880Z,17.7
2017-05-16T06:05:02.450Z,17.8
2017-05-16T06:10:03.130Z,18.1
2017-05-16T06:15:02.764Z,18.2
2017-05-16T06:20:02.532Z,18.2
2017-05-16T06:25:03.133Z,18.2
2017-05-16T06:30:02.965Z,18.2
2017-05-16T06:35:02.796Z,18.5
2017-05-16T06:40:02.653Z,18.5
2017-05-16T06:45:03.268Z,18.8
2017-05-16T06:50:03.068Z,18.8
2017-05-16T06:55:02.650Z,18.8
2017-05-16T07:00:03.237Z,19.0
2017-05-16T07:05:03.075Z,19.2
2017-05-16T07:10:02.749Z,19.1
2017-05-16T07:15:02.668Z,19.2
2017-05-16T07:20:02.548Z,19.2
2017-05-16T07:25:03.119Z,19.2
2017-05-16T07:30:02.683Z,20.0
2017-05-16T07:35:02.416Z,19.5
2017-05-16T07:40:03.026Z,19.7
2017-05-16T07:45:03.241Z,20.0
2017-05-16T07:50:02.935Z,20.1
2017-05-16T07:55:02.685Z,20.2
2017-05-16T08:00:02.455Z,20.3
2017-05-16T08:05:03.198Z,20.6
2017-05-16T08:10:02.831Z,20.6
2017-05-16T08:15:02.665Z,20.3
2017-05-16T08:20:02.686Z,20.7
2017-05-16T08:25:03.033Z,21.2
2017-05-16T08:30:03.356Z,21.0
2017-05-16T08:35:03.348Z,21.5
2017-05-16T08:40:02.844Z,21.7
2017-05-16T08:45:02.935Z,21.6
2017-05-16T08:50:02.485Z,22.5
2017-05-16T08:55:03.302Z,22.1
2017-05-16T09:00:02.761Z,22.7
2017-05-16T09:05:03.255Z,22.6
2017-05-16T09:10:02.810Z,23.1
2017-05-16T09:15:02.592Z,24.0
2017-05-16T09:20:03.354Z,24.2
2017-05-16T09:25:02.525Z,24.5
2017-05-16T09:30:02.787Z,23.7
2017-05-16T09:35:02.628Z,24.2
2017-05-16T09:40:03.167Z,24.7
2017-05-16T09:45:02.533Z,25.0
2017-05-16T09:50:03.169Z,24.2
2017-05-16T09:55:02.629Z,24.8
2017-05-16T10:00:02.743Z,24.7
2017-05-16T10:05:02.971Z,24.8
2017-05-16T10:10:02.435Z,25.3
2017-05-16T10:15:02.634Z,25.2
2017-05-16T10:20:02.511Z,25.6
2017-05-16T10:25:02.590Z,26.0
2017-05-16T10:30:03.014Z,25.5
2017-05-16T10:35:03.200Z,25.5
2017-05-16T10:40:02.647Z,26.6
2017-05-16T10:45:02.497Z,26.2
2017-05-16T10:50:02.940Z,26.8
2017-05-16T10:55:03.049Z,28.2
2017-05-16T11:00:02.551Z,28.5
2017-05-16T11:05:03.368Z,28.0
2017-05-16T11:10:02.927Z,29.7
2017-05-16T11:15:02.492Z,29.1
2017-05-16T11:20:03.002Z,28.3
2017-05-16T11:25:03.055Z,28.7
2017-05-16T11:30:02.635Z,26.7
2017-05-16T11:35:03.056Z,27.1
2017-05-16T11:40:02.670Z,26.8
2017-05-16T11:45:03.400Z,27.3
2017-05-16T11:50:02.879Z,26.8
2017-05-16T11:55:03.094Z,26.6
2017-05-16T12:00:03.126Z,27.3
2017-05-16T12:05:03.115Z,28.8
2017-05-16T12:10:02.606Z,28.5
2017-05-16T12:15:03.251Z,28.5
2017-05-16T12:20:02.875Z,28.6
2017-05-16T12:25:02.759Z,29.7
2017-05-16T12:30:03.199Z,28.7
2017-05-16T12:35:03.213Z,28.6
2017-05-16T12:40:03.127Z,28.2
2017-05-16T12:45:02.893Z,28.6
2017-05-16T12:50:02.562Z,28.6
2017-05-16T12:55:03.017Z,28.6
2017-05-16T13:00:02.729Z,30.1
2017-05-16T13:05:03.049Z,27.7
2017-05-16T13:10:02.687Z,28.2
2017-05-16T13:15:02.530Z,28.6
2017-05-16T13:20:02.831Z,28.0
2017-05-16T13:25:03.199Z,27.5
2017-05-16T13:30:02.906Z,27.1
2017-05-16T13:35:03.158Z,27.2
2017-05-16T13:40:02.911Z,27.1
2017-05-16T13:45:03.318Z,28.0
2017-05-16T13:50:02.655Z,27.5
2017-05-16T13:55:03.053Z,26.8
2017-05-16T14:00:02.780Z,26.5
2017-05-16T14:05:03.208Z,26.5
2017-05-16T14:10:02.882Z,26.7
2017-05-16T14:15:02.441Z,26.7
2017-05-16T14:20:02.920Z,27.1
2017-05-16T14:25:02.524Z,27.7
2017-05-16T14:30:03.272Z,27.2
2017-05-16T14:35:02.962Z,26.8
2017-05-16T14:40:02.461Z,26.8
2017-05-16T14:45:02.952Z,26.8
2017-05-16T14:50:02.666Z,26.8
2017-05-16T14:55:03.181Z,26.7
2017-05-16T15:00:02.728Z,26.8
2017-05-16T15:05:03.221Z,26.7
2017-05-16T15:10:03.006Z,26.6
2017-05-16T15:15:02.712Z,26.5
2017-05-16T15:20:02.625Z,26.6
2017-05-16T15:25:02.741Z,26.6
2017-05-16T15:30:03.186Z,26.5
2017-05-16T15:35:02.932Z,26.5
2017-05-16T15:40:02.880Z,26.6
2017-05-16T15:45:02.802Z,26.2
2017-05-16T15:50:02.687Z,26.0
2017-05-16T15:55:02.533Z,26.1
2017-05-16T16:00:03.328Z,26.1
2017-05-16T16:05:03.178Z,26.1
2017-05-16T16:10:03.341Z,26.1
2017-05-16T16:15:02.581Z,26.0
2017-05-16T16:20:03.083Z,26.0
2017-05-16T16:25:02.727Z,25.8
2017-05-16T16:30:02.412Z,25.7
2017-05-16T16:35:03.079Z,25.7
2017-05-16T16:40:02.406Z,25.7
2017-05-16T16:45:03.146Z,26.0
2017-05-16T16:50:03.369Z,26.0
2017-05-16T16:55:03.141Z,25.8
2017-05-16T17:00:02.409Z,25.7
2017-05-16T17:05:02.557Z,25.7
2017-05-16T17:10:03.116Z,26.1
2017-05-16T17:15:03.212Z,26.2
2017-05-16T17:20:02.486Z,26.5
2017-05-16T17:25:02.996Z,26.2
2017-05-16T17:30:02.595Z,25.8
2017-05-16T17:35:02.531Z,25.7
2017-05-16T17:40:03.081Z,25.5
2017-05-16T17:45:03.305Z,25.5
2017-05-16T17:50:03.243Z,25.3
2017-05-16T17:55:02.429Z,25.2
2017-05-16T18:00:03.255Z,25.1
2017-05-16T18:05:03.144Z,25.1
2017-05-16T18:10:03.123Z,25.0
2017-05-16T18:15:03.133Z,25.0
2017-05-16T18:20:03.232Z,25.0
2017-05-16T18:25:03.227Z,24.8
2017-05-16T18:30:03.270Z,25.0
2017-05-16T18:35:03.090Z,25.0
2017-05-16T18:40:03.034Z,24.6
2017-05-16T18:45:03.301Z,24.5
2017-05-16T18:50:02.460Z,24.3
2017-05-16T18:55:02.489Z,24.2
2017-05-16T19:00:02.769Z,24.0
2017-05-16T19:05:02.491Z,23.7
2017-05-16T19:10:02.428Z,23.6
2017-05-16T19:15:03.182Z,23.3
2017-05-16T19:20:03.086Z,23.2
2017-05-16T19:25:02.942Z,23.2
2017-05-16T19:30:02.854Z,23.0
2017-05-16T19:35:02.771Z,22.7
2017-05-16T19:40:02.689Z,22.7
2017-05-16T19:45:02.691Z,22.7
2017-05-16T19:50:03.372Z,22.6
2017-05-16T19:55:03.314Z,22.5
2017-05-16T20:00:03.140Z,22.6
2017-05-16T20:05:02.900Z,22.6
2017-05-16T20:10:02.922Z,22.6
2017-05-16T20:15:02.825Z,22.3
2017-05-16T20:20:03.231Z,22.3
2017-05-16T20:25:03.155Z,22.3
2017-05-16T20:30:03.122Z,22.2
2017-05-16T20:35:03.193Z,22.0
2017-05-16T20:40:02.480Z,22.0
2017-05-16T20:45:03.197Z,21.8
2017-05-16T20:50:03.136Z,21.8
2017-05-16T20:55:03.392Z,21.7
2017-05-16T21:00:02.817Z,21.6
2017-05-16T21:05:02.687Z,21.5
2017-05-16T21:10:02.701Z,21.2
2017-05-16T21:15:03.399Z,21.5
2017-05-16T21:20:03.222Z,21.2
2017-05-16T21:25:02.907Z,21.0
2017-05-16T21:30:02.456Z,21.0
2017-05-16T21:35:03.310Z,21.2
2017-05-16T21:40:03.083Z,21.2
2017-05-16T21:45:02.796Z,21.0
2017-05-16T21:50:02.569Z,21.0
2017-05-16T21:55:03.302Z,21.0
2017-05-16T22:00:02.918Z,20.7
2017-05-16T22:05:02.693Z,20.8
2017-05-16T22:10:03.323Z,20.6
2017-05-16T22:15:02.912Z,20.7
2017-05-16T22:20:02.487Z,20.7
2017-05-16T22:25:03.248Z,20.7
2017-05-16T22:30:02.864Z,20.6
2017-05-16T22:35:02.510Z,20.6
2017-05-16T22:40:03.167Z,20.6
2017-05-16T22:45:02.712Z,20.6
2017-05-16T22:50:02.491Z,20.3
2017-05-16T22:55:03.285Z,20.6
2017-05-16T23:00:02.821Z,20.3
2017-05-16T23:05:02.653Z,20.3
2017-05-16T23:10:03.326Z,20.3
2017-05-16T23:20:03.428Z,20.3
2017-05-16T23:25:02.660Z,20.3
2017-05-16T23:30:03.342Z,20.3
2017-05-16T23:35:02.991Z,20.2
2017-05-16T23:40:02.727Z,19.7
2017-05-16T23:45:03.317Z,19.5
2017-05-16T23:50:02.948Z,19.5
2017-05-16T23:55:09.730Z,19.7
